Time;durP1;ratioP1;P1;durP2;ratioP2;P2;SDS_P1;SDS_P2;PMS_P1;PMS_P2;Temp;Humidity;BMP_temperature;BMP_pressure;BME280_temperature;BME280_humidity;BME280_pressure;Samples;Min_cycle;Max_cycle;Signal;HPM_P1;HPM_P2
2023/07/30 00:00:11;;;;;;;8.95;3.20;;;22.70;99.90;;;;;;5073088;28;20052;-52
2023/07/30 00:03:18;;;;;;;6.40;3.20;;;22.60;99.90;;;;;;5072978;28;20043;-51
2023/07/30 00:06:22;;;;;;;5.32;3.20;;;22.60;99.90;;;;;;5073143;28;20039;-53
2023/07/30 00:09:26;;;;;;;8.00;2.90;;;22.50;99.90;;;;;;5072900;28;20102;-54
2023/07/30 00:12:30;;;;;;;8.35;3.10;;;22.50;99.90;;;;;;5072649;28;20064;-52
2023/07/30 00:15:35;;;;;;;5.63;3.10;;;22.60;99.90;;;;;;5072752;28;20051;-52
2023/07/30 00:18:39;;;;;;;12.43;4.60;;;22.50;99.90;;;;;;5072735;28;20399;-53
2023/07/30 00:21:46;;;;;;;7.38;3.95;;;22.50;99.90;;;;;;5072198;28;20043;-51
2023/07/30 00:24:50;;;;;;;4.93;3.25;;;22.40;99.90;;;;;;5072918;28;20518;-51
2023/07/30 00:27:55;;;;;;;6.18;3.22;;;22.40;99.90;;;;;;5072569;28;20522;-52
2023/07/30 00:30:59;;;;;;;7.50;3.70;;;22.40;99.90;;;;;;5072881;28;20043;-53
2023/07/30 00:34:03;;;;;;;7.18;3.58;;;22.40;99.90;;;;;;5072797;28;20415;-53
2023/07/30 00:37:07;;;;;;;6.65;3.38;;;22.40;99.90;;;;;;5071465;28;20040;-53
2023/07/30 00:40:11;;;;;;;7.07;3.80;;;22.40;99.90;;;;;;5072288;28;20038;-54
2023/07/30 00:43:16;;;;;;;8.70;4.20;;;22.30;99.90;;;;;;5072394;28;20407;-51
2023/07/30 00:46:20;;;;;;;7.90;4.30;;;22.30;99.90;;;;;;5072725;28;20052;-51
2023/07/30 00:49:25;;;;;;;7.55;3.20;;;22.30;99.90;;;;;;5072255;28;20043;-51
2023/07/30 00:52:30;;;;;;;6.97;3.40;;;22.30;99.90;;;;;;5071140;28;20047;-51
2023/07/30 00:55:35;;;;;;;7.55;3.10;;;22.20;99.90;;;;;;5072164;28;20297;-51
2023/07/30 00:58:40;;;;;;;5.78;3.28;;;22.20;99.90;;;;;;5071881;28;20039;-52
2023/07/30 01:01:47;;;;;;;6.00;3.30;;;22.20;99.90;;;;;;5071649;28;20044;-52
2023/07/30 01:04:52;;;;;;;6.97;3.22;;;22.20;99.90;;;;;;5071977;28;20035;-51
2023/07/30 01:07:57;;;;;;;7.95;3.33;;;22.30;99.90;;;;;;5072162;28;20044;-51
2023/07/30 01:11:03;;;;;;;8.68;3.50;;;22.30;99.90;;;;;;5072042;28;20047;-51
2023/07/30 01:14:09;;;;;;;6.97;3.13;;;22.30;99.90;;;;;;5071253;28;20410;-51
2023/07/30 01:17:14;;;;;;;8.07;3.83;;;22.40;99.90;;;;;;5071011;28;20119;-51
2023/07/30 01:20:18;;;;;;;6.60;3.08;;;22.30;99.90;;;;;;5070468;28;20043;-54
2023/07/30 01:23:22;;;;;;;5.80;3.42;;;22.30;99.90;;;;;;5070874;28;20059;-53
2023/07/30 01:26:42;;;;;;;6.40;3.30;;;22.30;99.90;;;;;;5070743;28;20048;-52
2023/07/30 01:29:56;;;;;;;6.15;2.75;;;22.40;99.90;;;;;;5071533;28;20047;-53
2023/07/30 01:33:02;;;;;;;6.07;3.15;;;22.30;99.90;;;;;;5070609;28;20039;-51
2023/07/30 01:36:11;;;;;;;6.00;3.40;;;22.30;99.90;;;;;;5071363;28;20407;-51
2023/07/30 01:39:16;;;;;;;5.78;2.90;;;22.30;99.90;;;;;;5071420;28;20127;-51
2023/07/30 01:42:21;;;;;;;7.30;3.08;;;22.30;99.90;;;;;;5071445;28;20043;-52
2023/07/30 01:45:25;;;;;;;9.88;3.25;;;22.20;99.90;;;;;;5071295;28;20047;-51
2023/07/30 01:48:29;;;;;;;11.27;3.65;;;22.20;99.90;;;;;;5071564;28;20027;-51
2023/07/30 01:51:33;;;;;;;7.00;3.50;;;22.20;99.90;;;;;;5070887;28;20051;-51
2023/07/30 01:54:37;;;;;;;5.65;3.30;;;22.10;99.90;;;;;;5071200;28;20043;-52
2023/07/30 01:57:41;;;;;;;6.65;2.97;;;22.10;99.90;;;;;;5071040;28;20514;-53
2023/07/30 02:00:46;;;;;;;7.43;3.60;;;22.10;99.90;;;;;;5069797;28;20047;-51
2023/07/30 02:03:51;;;;;;;7.68;3.38;;;22.10;99.90;;;;;;5070914;28;20047;-53
2023/07/30 02:06:56;;;;;;;8.35;3.28;;;22.10;99.90;;;;;;5070084;28;20067;-54
2023/07/30 02:10:00;;;;;;;6.68;3.72;;;22.10;99.90;;;;;;5069621;28;20529;-54
2023/07/30 02:13:04;;;;;;;6.45;3.85;;;22.10;99.90;;;;;;5070222;28;20043;-51
2023/07/30 02:16:08;;;;;;;10.70;3.53;;;22.10;99.90;;;;;;5069554;28;20051;-52
2023/07/30 02:19:13;;;;;;;5.80;3.53;;;22.10;99.90;;;;;;5069372;28;20059;-55
2023/07/30 02:22:17;;;;;;;7.65;3.42;;;21.70;99.90;;;;;;5070553;28;20071;-51
2023/07/30 02:25:21;;;;;;;6.25;3.97;;;21.50;99.90;;;;;;5070777;28;20423;-51
2023/07/30 02:28:25;;;;;;;8.50;3.58;;;21.20;99.90;;;;;;5069677;28;20043;-54
2023/07/30 02:31:29;;;;;;;7.22;3.67;;;21.10;99.90;;;;;;5069505;28;20040;-52
2023/07/30 02:34:33;;;;;;;6.05;3.85;;;21.10;99.90;;;;;;5069355;28;20448;-52
2023/07/30 02:37:37;;;;;;;8.27;3.83;;;21.00;99.90;;;;;;5070209;28;20039;-51
2023/07/30 02:40:41;;;;;;;5.00;3.50;;;20.90;99.90;;;;;;5069697;28;20045;-51
2023/07/30 02:43:45;;;;;;;6.10;3.53;;;20.80;99.90;;;;;;5070038;28;20047;-55
2023/07/30 02:46:49;;;;;;;6.97;3.30;;;20.90;99.90;;;;;;5070427;28;20071;-51
2023/07/30 02:49:53;;;;;;;12.38;3.80;;;20.90;99.90;;;;;;5070326;28;20051;-51
2023/07/30 02:52:59;;;;;;;7.78;3.60;;;20.90;99.90;;;;;;5070235;28;20047;-51
2023/07/30 02:56:03;;;;;;;7.40;3.53;;;20.90;99.90;;;;;;5069713;28;20422;-51
2023/07/30 02:59:07;;;;;;;11.07;3.90;;;20.90;99.90;;;;;;5070347;28;20051;-51
2023/07/30 03:02:11;;;;;;;7.28;3.92;;;20.80;99.90;;;;;;5069235;28;20517;-53
2023/07/30 03:05:15;;;;;;;6.35;3.50;;;20.80;99.90;;;;;;5069254;28;20399;-52
2023/07/30 03:08:21;;;;;;;6.95;4.07;;;20.90;99.90;;;;;;5070073;28;20032;-51
2023/07/30 03:11:25;;;;;;;7.55;4.00;;;20.90;99.90;;;;;;5069680;28;20055;-54
2023/07/30 03:14:29;;;;;;;11.80;3.80;;;20.80;99.90;;;;;;5069237;28;20076;-53
2023/07/30 03:17:33;;;;;;;5.65;3.55;;;20.80;99.90;;;;;;5068828;28;20059;-51
2023/07/30 03:20:37;;;;;;;9.20;3.95;;;20.80;99.90;;;;;;5069545;28;20059;-53
2023/07/30 03:23:44;;;;;;;7.63;3.85;;;20.80;99.90;;;;;;5069378;28;20058;-51
2023/07/30 03:26:48;;;;;;;8.02;3.72;;;20.80;99.90;;;;;;5070410;28;20047;-53
2023/07/30 03:29:52;;;;;;;6.45;3.63;;;20.80;99.90;;;;;;5069849;28;20047;-51
2023/07/30 03:32:58;;;;;;;7.50;3.47;;;20.80;99.90;;;;;;5069837;28;20063;-51
2023/07/30 03:36:03;;;;;;;7.28;3.58;;;20.80;99.90;;;;;;5069117;28;20051;-52
2023/07/30 03:39:06;;;;;;;6.45;3.90;;;20.90;99.90;;;;;;5069045;28;20046;-52
2023/07/30 03:42:11;;;;;;;10.13;3.97;;;21.00;99.90;;;;;;5068650;28;20052;-51
2023/07/30 03:45:15;;;;;;;6.28;3.65;;;21.00;99.90;;;;;;5068811;28;20043;-51
2023/07/30 03:48:19;;;;;;;7.20;3.75;;;21.00;99.90;;;;;;5068663;28;20498;-51
2023/07/30 03:51:23;;;;;;;4.95;3.63;;;21.00;99.90;;;;;;5069046;28;20506;-51
2023/07/30 03:54:27;;;;;;;8.43;4.38;;;21.00;99.90;;;;;;5069465;28;20040;-51
2023/07/30 03:57:32;;;;;;;5.75;3.38;;;20.90;99.90;;;;;;5068705;28;20044;-51
2023/07/30 04:00:36;;;;;;;7.75;3.67;;;20.80;99.90;;;;;;5069077;28;20056;-51
2023/07/30 04:03:40;;;;;;;12.70;3.92;;;20.80;99.90;;;;;;5068497;28;20035;-53
2023/07/30 04:06:46;;;;;;;11.23;4.03;;;20.60;99.90;;;;;;5069278;28;20526;-51
2023/07/30 04:09:50;;;;;;;7.47;3.83;;;20.50;99.90;;;;;;5069857;28;20048;-53
2023/07/30 04:12:55;;;;;;;9.40;3.72;;;20.40;99.90;;;;;;5069511;28;20048;-51
2023/07/30 04:16:00;;;;;;;5.03;3.53;;;20.20;99.90;;;;;;5069219;28;20047;-51
2023/07/30 04:19:04;;;;;;;7.38;3.97;;;20.10;99.90;;;;;;5069507;28;20047;-50
2023/07/30 04:22:08;;;;;;;10.75;4.32;;;20.10;99.90;;;;;;5069032;28;20051;-51
2023/07/30 04:25:12;;;;;;;7.93;3.80;;;20.10;99.90;;;;;;5069347;28;20067;-53
2023/07/30 04:28:16;;;;;;;8.73;4.30;;;20.10;99.90;;;;;;5068606;28;20047;-51
2023/07/30 04:31:20;;;;;;;7.63;3.78;;;20.20;99.90;;;;;;5066889;28;20115;-53
2023/07/30 04:34:25;;;;;;;9.20;4.20;;;20.10;99.90;;;;;;5068438;28;20415;-52
2023/07/30 04:37:29;;;;;;;8.15;3.90;;;20.10;99.90;;;;;;5065715;28;20039;-51
2023/07/30 04:40:34;;;;;;;7.35;4.28;;;20.10;99.90;;;;;;5058662;28;20054;-51
2023/07/30 04:43:38;;;;;;;9.02;4.45;;;20.10;99.90;;;;;;5071522;28;20051;-52
2023/07/30 04:46:42;;;;;;;6.22;4.00;;;20.10;99.90;;;;;;5070921;28;20036;-52
2023/07/30 04:49:46;;;;;;;7.65;3.97;;;20.20;99.90;;;;;;5071799;28;20601;-53
2023/07/30 04:52:51;;;;;;;7.90;4.25;;;20.30;99.90;;;;;;5071346;28;20059;-52
2023/07/30 04:55:57;;;;;;;10.23;4.43;;;20.50;99.90;;;;;;5072510;28;20091;-52
2023/07/30 04:59:01;;;;;;;7.90;4.50;;;21.40;99.90;;;;;;5071451;28;20047;-52
2023/07/30 05:02:07;;;;;;;8.00;3.95;;;23.30;99.90;;;;;;5072038;28;20494;-52
2023/07/30 05:05:11;;;;;;;6.20;3.47;;;25.00;99.90;;;;;;5072739;28;20047;-52
2023/07/30 05:08:16;;;;;;;9.93;3.67;;;26.10;99.90;;;;;;5072384;28;20047;-51
2023/07/30 05:11:21;;;;;;;14.75;4.07;;;26.50;99.90;;;;;;5071867;28;20043;-56
2023/07/30 05:14:25;;;;;;;7.75;4.10;;;26.80;99.90;;;;;;5063935;28;20051;-51
2023/07/30 05:17:30;;;;;;;7.82;4.00;;;26.70;99.90;;;;;;5071682;28;20055;-51
2023/07/30 05:20:33;;;;;;;5.35;3.30;;;28.10;99.90;;;;;;5071382;28;20052;-51
2023/07/30 05:23:37;;;;;;;5.40;3.22;;;28.50;99.90;;;;;;5071301;28;20048;-52
2023/07/30 05:26:41;;;;;;;5.82;3.95;;;29.40;99.90;;;;;;5071800;28;20063;-52
2023/07/30 05:29:45;;;;;;;6.25;3.58;;;30.30;99.90;;;;;;5071799;28;20055;-52
2023/07/30 05:32:50;;;;;;;6.32;3.28;;;31.00;99.90;;;;;;5071179;28;20051;-51
2023/07/30 05:35:55;;;;;;;8.55;3.35;;;31.60;99.90;;;;;;5071301;28;20052;-53
2023/07/30 05:38:59;;;;;;;4.95;2.78;;;31.40;99.90;;;;;;5071512;28;20519;-51
2023/07/30 05:42:03;;;;;;;6.43;3.30;;;29.40;99.90;;;;;;5070819;28;20067;-51
2023/07/30 05:45:08;;;;;;;11.30;3.67;;;28.10;99.90;;;;;;5071265;28;20048;-51
2023/07/30 05:48:12;;;;;;;5.85;3.15;;;28.30;99.90;;;;;;5070369;28;20372;-51
2023/07/30 05:51:16;;;;;;;4.45;3.00;;;29.00;99.90;;;;;;5070987;28;20047;-51
2023/07/30 05:54:20;;;;;;;7.22;3.65;;;28.00;99.90;;;;;;5070993;28;20507;-51
2023/07/30 05:57:25;;;;;;;6.82;3.30;;;27.30;99.90;;;;;;5071011;28;20052;-54
2023/07/30 06:00:31;;;;;;;4.75;3.03;;;27.80;99.90;;;;;;5070830;28;20477;-51
2023/07/30 06:03:37;;;;;;;11.30;3.83;;;28.60;99.90;;;;;;5070671;28;20047;-51
2023/07/30 06:06:41;;;;;;;4.70;3.22;;;28.60;99.90;;;;;;5070596;28;20408;-51
2023/07/30 06:09:45;;;;;;;6.72;3.33;;;29.10;99.90;;;;;;5070898;28;20506;-52
2023/07/30 06:12:49;;;;;;;6.82;3.50;;;30.00;99.90;;;;;;5070345;28;20059;-53
2023/07/30 06:15:55;;;;;;;9.88;3.55;;;29.30;99.90;;;;;;5070575;28;20047;-51
2023/07/30 06:18:59;;;;;;;6.43;3.80;;;29.20;99.90;;;;;;5070586;28;20482;-51
2023/07/30 06:22:04;;;;;;;6.25;3.50;;;29.50;99.90;;;;;;5069976;28;20040;-51
2023/07/30 06:25:07;;;;;;;5.38;3.60;;;29.70;99.90;;;;;;5070542;28;20052;-56
2023/07/30 06:28:12;;;;;;;6.53;3.25;;;30.00;99.90;;;;;;5070633;28;20052;-55
2023/07/30 06:31:16;;;;;;;3.10;2.53;;;30.30;99.90;;;;;;5069933;28;20048;-53
2023/07/30 06:34:20;;;;;;;7.68;3.05;;;31.00;99.90;;;;;;5070566;28;20053;-53
2023/07/30 06:37:23;;;;;;;8.60;3.53;;;31.00;99.90;;;;;;5070608;28;20048;-52
2023/07/30 06:40:27;;;;;;;5.55;2.85;;;31.30;98.90;;;;;;5070141;28;20111;-52
2023/07/30 06:43:31;;;;;;;8.70;3.20;;;31.20;99.10;;;;;;5070066;28;20067;-54
2023/07/30 06:46:36;;;;;;;4.72;3.10;;;32.10;98.60;;;;;;5070587;28;20051;-53
2023/07/30 06:49:40;;;;;;;9.38;3.40;;;32.00;97.90;;;;;;5070206;28;20051;-52
2023/07/30 06:52:46;;;;;;;5.57;3.22;;;32.40;97.40;;;;;;5069946;28;20415;-54
2023/07/30 06:55:51;;;;;;;5.07;3.20;;;31.60;97.40;;;;;;5070021;28;20518;-54
2023/07/30 06:58:55;;;;;;;6.13;2.90;;;31.30;97.80;;;;;;5070146;28;20043;-52
2023/07/30 07:01:59;;;;;;;9.00;3.30;;;31.50;97.90;;;;;;5069878;28;20238;-55
2023/07/30 07:05:03;;;;;;;8.43;3.42;;;32.20;97.00;;;;;;5069800;28;20047;-52
2023/07/30 07:08:07;;;;;;;3.78;2.55;;;33.10;96.30;;;;;;5070134;28;20399;-53
2023/07/30 07:11:11;;;;;;;6.85;2.67;;;33.10;95.90;;;;;;5069822;28;20043;-54
2023/07/30 07:14:15;;;;;;;6.15;2.80;;;34.20;95.10;;;;;;5069488;28;20257;-52
2023/07/30 07:17:19;;;;;;;5.45;3.10;;;34.20;95.10;;;;;;5069610;28;20087;-56
2023/07/30 07:20:23;;;;;;;7.55;3.10;;;32.80;95.20;;;;;;5069476;28;20067;-52
2023/07/30 07:23:27;;;;;;;6.38;3.33;;;32.80;95.80;;;;;;5069094;28;20040;-52
2023/07/30 07:26:32;;;;;;;5.72;3.30;;;32.30;96.10;;;;;;5069597;28;20047;-54
2023/07/30 07:29:37;;;;;;;8.48;2.85;;;31.80;96.40;;;;;;5069206;28;20055;-53
2023/07/30 07:32:42;;;;;;;7.80;2.88;;;31.40;97.00;;;;;;5069223;28;20044;-52
2023/07/30 07:35:46;;;;;;;5.22;2.75;;;31.90;96.30;;;;;;5069185;28;20434;-52
2023/07/30 07:38:50;;;;;;;7.05;3.25;;;32.50;95.80;;;;;;5069636;28;20055;-55
2023/07/30 07:41:54;;;;;;;4.53;2.67;;;32.90;95.70;;;;;;5069343;28;20055;-52
2023/07/30 07:44:57;;;;;;;4.35;2.80;;;32.90;95.90;;;;;;5069342;28;20059;-52
2023/07/30 07:48:03;;;;;;;4.93;3.22;;;33.30;95.80;;;;;;5069525;28;20047;-51
2023/07/30 07:51:08;;;;;;;5.93;3.17;;;32.40;96.10;;;;;;5069521;28;20067;-54
2023/07/30 07:54:12;;;;;;;4.90;2.78;;;32.30;95.70;;;;;;5069282;28;20047;-53
2023/07/30 07:57:17;;;;;;;3.13;2.33;;;32.80;96.70;;;;;;5069372;28;20526;-51
2023/07/30 08:00:22;;;;;;;5.32;2.22;;;35.30;94.60;;;;;;5069346;28;20103;-54
2023/07/30 08:03:26;;;;;;;5.30;2.33;;;37.50;92.60;;;;;;5069152;28;20043;-53
2023/07/30 08:06:32;;;;;;;4.43;2.10;;;39.20;90.30;;;;;;5069584;28;20055;-55
2023/07/30 08:09:36;;;;;;;3.25;1.90;;;39.90;87.00;;;;;;5069590;28;20060;-56
2023/07/30 08:12:42;;;;;;;5.05;1.70;;;41.00;83.50;;;;;;5071269;28;20048;-56
2023/07/30 08:15:47;;;;;;;5.10;1.58;;;41.90;80.10;;;;;;5072819;28;20044;-55
2023/07/30 08:18:51;;;;;;;6.25;1.70;;;42.00;78.70;;;;;;5072993;28;20052;-55
2023/07/30 08:21:56;;;;;;;6.15;2.13;;;42.20;77.90;;;;;;5072607;28;20051;-54
2023/07/30 08:25:00;;;;;;;2.63;1.88;;;42.50;75.80;;;;;;5072622;28;20055;-53
2023/07/30 08:28:04;;;;;;;3.88;1.48;;;43.00;75.10;;;;;;5072582;28;20047;-55
2023/07/30 08:31:08;;;;;;;2.30;1.20;;;43.50;74.00;;;;;;5072680;28;20044;-51
2023/07/30 08:34:13;;;;;;;2.83;1.48;;;43.60;72.50;;;;;;5072412;28;20040;-52
2023/07/30 08:37:17;;;;;;;5.03;1.52;;;43.80;72.40;;;;;;5072697;28;20509;-55
2023/07/30 08:40:25;;;;;;;4.30;1.40;;;44.30;72.00;;;;;;5072306;28;20037;-52
2023/07/30 08:43:29;;;;;;;3.65;1.42;;;44.70;71.10;;;;;;5072275;28;20035;-53
2023/07/30 08:46:33;;;;;;;3.45;1.35;;;45.20;70.60;;;;;;5072313;28;20055;-50
2023/07/30 08:49:38;;;;;;;4.65;1.58;;;43.60;70.30;;;;;;5072563;28;20044;-51
2023/07/30 08:52:42;;;;;;;3.10;1.60;;;42.10;72.10;;;;;;5072320;28;20399;-53
2023/07/30 08:55:47;;;;;;;4.18;1.60;;;42.60;71.90;;;;;;5072108;28;20047;-53
2023/07/30 08:58:53;;;;;;;2.67;1.35;;;43.80;71.50;;;;;;5072465;28;20043;-50
2023/07/30 09:01:58;;;;;;;2.75;1.40;;;44.80;70.40;;;;;;5072006;28;20407;-54
2023/07/30 09:05:04;;;;;;;3.50;1.60;;;45.90;68.60;;;;;;5072107;28;20043;-50
2023/07/30 09:08:09;;;;;;;2.35;1.40;;;45.20;69.30;;;;;;5072169;28;20039;-54
2023/07/30 09:11:13;;;;;;;2.90;1.40;;;44.00;69.10;;;;;;5072130;28;20048;-53
2023/07/30 09:14:21;;;;;;;3.50;1.50;;;43.30;70.40;;;;;;5072178;28;20052;-53
2023/07/30 09:17:25;;;;;;;5.70;2.05;;;41.10;70.90;;;;;;5071825;28;20047;-53
2023/07/30 09:20:40;;;;;;;5.00;1.58;;;41.10;72.50;;;;;;5071896;28;20050;-51
2023/07/30 09:23:46;;;;;;;3.15;1.65;;;37.30;75.30;;;;;;5071861;28;20055;-53
2023/07/30 09:26:50;;;;;;;4.75;1.88;;;35.60;77.50;;;;;;5071752;28;20526;-55
2023/07/30 09:29:56;;;;;;;2.30;1.60;;;33.20;82.10;;;;;;5072432;28;20047;-51
2023/07/30 09:33:00;;;;;;;4.00;1.83;;;34.50;81.80;;;;;;5071702;28;20419;-51
2023/07/30 09:36:06;;;;;;;3.20;1.80;;;36.90;79.80;;;;;;5071371;28;20043;-52
2023/07/30 09:39:26;;;;;;;3.47;1.75;;;37.70;78.20;;;;;;5071219;28;20047;-52
2023/07/30 09:42:33;;;;;;;3.05;1.50;;;40.20;75.90;;;;;;5071734;28;20048;-52
2023/07/30 09:45:37;;;;;;;5.40;1.50;;;40.50;75.10;;;;;;5071373;28;20498;-53
2023/07/30 09:48:41;;;;;;;2.78;1.40;;;42.60;72.60;;;;;;5071604;28;20043;-56
2023/07/30 09:51:47;;;;;;;6.00;1.40;;;43.60;71.00;;;;;;5070782;28;20783;-52
2023/07/30 09:54:52;;;;;;;2.78;1.48;;;46.20;69.80;;;;;;5071080;28;20067;-54
2023/07/30 09:57:58;;;;;;;5.65;1.70;;;42.50;70.60;;;;;;5070992;28;20047;-55
2023/07/30 10:01:04;;;;;;;3.00;1.60;;;41.40;72.60;;;;;;5071097;28;20412;-53
2023/07/30 10:04:09;;;;;;;2.63;1.90;;;37.30;76.20;;;;;;5071028;28;20051;-53
2023/07/30 10:07:18;;;;;;;3.95;1.70;;;38.90;76.60;;;;;;5070809;28;20438;-52
2023/07/30 10:10:24;;;;;;;4.38;1.77;;;39.10;75.20;;;;;;5070915;28;20059;-52
2023/07/30 10:13:30;;;;;;;3.28;1.60;;;39.60;75.10;;;;;;5070433;28;20411;-52
2023/07/30 10:16:34;;;;;;;5.80;1.70;;;40.70;74.00;;;;;;5070305;28;20058;-52
2023/07/30 10:19:38;;;;;;;3.05;1.77;;;36.40;77.20;;;;;;5070778;28;20059;-53
2023/07/30 10:22:45;;;;;;;5.88;1.70;;;34.80;82.00;;;;;;5070172;28;20044;-52
2023/07/30 10:25:51;;;;;;;4.72;1.77;;;38.20;79.70;;;;;;5070445;28;20048;-52
2023/07/30 10:29:14;;;;;;;5.07;2.00;;;41.80;75.90;;;;;;5070564;28;20051;-52
2023/07/30 10:32:19;;;;;;;3.63;1.60;;;45.40;71.70;;;;;;5070305;28;20051;-54
2023/07/30 10:35:39;;;;;;;4.25;1.70;;;40.80;72.90;;;;;;5069827;28;20119;-56
2023/07/30 10:38:43;;;;;;;2.90;1.60;;;41.60;74.80;;;;;;5070437;28;20521;-53
2023/07/30 10:41:53;;;;;;;4.13;1.73;;;41.50;74.00;;;;;;5069819;28;20051;-52
2023/07/30 10:44:58;;;;;;;4.15;1.60;;;40.60;73.90;;;;;;5070266;28;20036;-52
2023/07/30 10:48:05;;;;;;;3.05;1.60;;;41.50;74.60;;;;;;5069712;28;20039;-52
2023/07/30 10:51:15;;;;;;;4.32;1.50;;;43.60;72.70;;;;;;5069718;28;20502;-52
2023/07/30 10:54:20;;;;;;;2.97;1.50;;;43.50;70.10;;;;;;5070132;28;20039;-52
2023/07/30 10:57:29;;;;;;;3.42;1.50;;;40.60;74.00;;;;;;5069795;28;20052;-51
2023/07/30 11:00:32;;;;;;;5.38;2.10;;;36.10;79.50;;;;;;5070093;28;20502;-53
2023/07/30 11:03:40;;;;;;;4.05;2.28;;;34.50;81.50;;;;;;5070413;28;20047;-53
2023/07/30 11:06:47;;;;;;;5.95;2.22;;;33.10;85.50;;;;;;5069699;28;20525;-52
2023/07/30 11:10:00;;;;;;;5.18;2.22;;;34.70;83.90;;;;;;5065919;28;20039;-51
2023/07/30 11:13:04;;;;;;;6.32;1.92;;;36.10;82.50;;;;;;5051679;28;20040;-52
2023/07/30 11:16:10;;;;;;;6.93;1.80;;;37.40;81.30;;;;;;5069351;28;20048;-54
2023/07/30 11:19:14;;;;;;;4.97;1.77;;;38.60;79.90;;;;;;5069749;28;20044;-51
2023/07/30 11:22:31;;;;;;;5.45;2.05;;;39.30;79.10;;;;;;5069681;28;20047;-52
2023/07/30 11:25:35;;;;;;;4.40;1.60;;;39.60;78.50;;;;;;5068294;28;20043;-53
2023/07/30 11:28:40;;;;;;;2.55;1.70;;;41.20;76.80;;;;;;5057516;28;20047;-55
2023/07/30 11:31:46;;;;;;;2.78;1.75;;;41.60;75.50;;;;;;5064884;28;20051;-56
2023/07/30 11:34:50;;;;;;;6.50;2.00;;;43.00;75.40;;;;;;5069795;28;20043;-54
2023/07/30 11:37:55;;;;;;;3.90;1.80;;;41.20;74.80;;;;;;5065984;28;20513;-52
2023/07/30 11:40:59;;;;;;;4.07;1.85;;;39.00;76.00;;;;;;5069589;28;20043;-54
2023/07/30 11:44:04;;;;;;;4.20;1.75;;;39.30;75.80;;;;;;5069836;28;20510;-55
2023/07/30 11:47:09;;;;;;;5.13;1.92;;;38.90;78.70;;;;;;5072651;28;20063;-54
2023/07/30 11:50:14;;;;;;;4.57;1.88;;;38.70;79.00;;;;;;5072718;28;20052;-52
2023/07/30 11:53:19;;;;;;;4.82;2.22;;;35.90;82.10;;;;;;5073731;28;20044;-56
2023/07/30 11:56:24;;;;;;;5.10;1.60;;;35.90;82.80;;;;;;5073710;28;20039;-55
2023/07/30 11:59:31;;;;;;;3.00;1.80;;;36.60;82.50;;;;;;5073763;28;20407;-51
2023/07/30 12:02:35;;;;;;;5.25;1.80;;;38.00;81.00;;;;;;5073520;28;20044;-56
2023/07/30 12:05:40;;;;;;;7.03;2.20;;;38.10;81.00;;;;;;5073482;28;20047;-51
2023/07/30 12:08:49;;;;;;;5.13;1.90;;;38.10;80.50;;;;;;5073412;28;20047;-52
2023/07/30 12:11:54;;;;;;;3.75;1.63;;;37.80;81.40;;;;;;5073523;28;20514;-54
2023/07/30 12:14:58;;;;;;;6.85;2.20;;;37.70;82.50;;;;;;5073391;28;20059;-58
2023/07/30 12:18:03;;;;;;;3.47;1.90;;;38.50;80.20;;;;;;5072853;28;20071;-52
2023/07/30 12:21:08;;;;;;;4.72;1.73;;;34.20;83.50;;;;;;5072893;28;20055;-55
2023/07/30 12:24:12;;;;;;;2.50;1.75;;;34.90;85.50;;;;;;5072947;28;20510;-52
2023/07/30 12:27:17;;;;;;;3.72;1.92;;;35.90;83.50;;;;;;5072731;28;20048;-51
2023/07/30 12:30:21;;;;;;;5.75;1.92;;;36.40;83.80;;;;;;5072822;28;20402;-54
2023/07/30 12:33:25;;;;;;;5.45;2.00;;;36.40;83.50;;;;;;5072878;28;20047;-52
2023/07/30 12:36:28;;;;;;;5.72;1.80;;;37.10;83.90;;;;;;5072588;28;20581;-51
2023/07/30 12:39:33;;;;;;;6.25;2.00;;;38.20;82.40;;;;;;5072391;28;20043;-51
2023/07/30 12:42:38;;;;;;;2.38;1.67;;;38.00;82.00;;;;;;5072188;28;20044;-52
2023/07/30 12:45:42;;;;;;;4.80;2.08;;;37.90;82.00;;;;;;5072549;28;20043;-52
2023/07/30 12:48:46;;;;;;;3.92;1.92;;;37.30;83.20;;;;;;5071487;28;20050;-52
2023/07/30 12:51:51;;;;;;;4.78;1.90;;;36.90;84.30;;;;;;5072194;28;20051;-51
2023/07/30 12:54:56;;;;;;;4.55;1.83;;;36.80;82.50;;;;;;5072414;28;20506;-54
2023/07/30 12:58:00;;;;;;;4.43;1.95;;;36.60;83.90;;;;;;5071605;28;20055;-51
2023/07/30 13:01:04;;;;;;;4.50;2.20;;;37.20;84.40;;;;;;5071403;28;20406;-51
2023/07/30 13:04:08;;;;;;;5.72;2.17;;;37.80;82.10;;;;;;5071457;28;20506;-53
2023/07/30 13:07:12;;;;;;;8.98;1.98;;;37.90;81.20;;;;;;5072017;28;20031;-51
2023/07/30 13:10:16;;;;;;;4.60;1.95;;;36.50;81.20;;;;;;5072216;28;20044;-51
2023/07/30 13:13:20;;;;;;;4.20;1.92;;;36.00;83.40;;;;;;5071812;28;20043;-53
2023/07/30 13:16:24;;;;;;;4.80;1.92;;;36.40;84.00;;;;;;5063800;28;20055;-51
2023/07/30 13:19:29;;;;;;;3.97;1.90;;;37.20;83.60;;;;;;5071812;28;20056;-51
2023/07/30 13:22:33;;;;;;;6.25;1.60;;;37.60;80.80;;;;;;5071334;28;20517;-52
2023/07/30 13:25:38;;;;;;;6.30;1.83;;;37.90;83.10;;;;;;5071569;28;20039;-53
2023/07/30 13:28:41;;;;;;;6.45;2.03;;;38.20;80.70;;;;;;5071956;28;20043;-51
2023/07/30 13:31:45;;;;;;;5.53;1.83;;;37.90;81.30;;;;;;5071850;28;20063;-52
2023/07/30 13:34:49;;;;;;;4.38;1.80;;;35.20;81.40;;;;;;5071748;28;20123;-54
2023/07/30 13:37:53;;;;;;;3.33;1.90;;;33.40;84.50;;;;;;5071557;28;20043;-53
2023/07/30 13:40:58;;;;;;;5.57;2.38;;;34.20;84.20;;;;;;5071480;28;20520;-51
2023/07/30 13:44:02;;;;;;;4.25;2.20;;;34.90;82.90;;;;;;5071547;28;20048;-52
2023/07/30 13:47:06;;;;;;;6.63;1.90;;;35.80;83.50;;;;;;5071499;28;20067;-51
2023/07/30 13:50:10;;;;;;;5.13;2.28;;;36.20;82.10;;;;;;5071224;28;20044;-52
2023/07/30 13:53:14;;;;;;;5.10;2.03;;;34.10;83.60;;;;;;5070850;28;20053;-51
2023/07/30 13:56:19;;;;;;;7.82;2.25;;;34.00;85.00;;;;;;5071118;28;20043;-53
2023/07/30 13:59:23;;;;;;;2.83;2.10;;;34.30;83.90;;;;;;5071122;28;20403;-52
2023/07/30 14:02:29;;;;;;;4.82;2.13;;;34.10;83.70;;;;;;5070929;28;20039;-51
2023/07/30 14:05:34;;;;;;;4.85;2.10;;;34.00;82.40;;;;;;5070984;28;20039;-53
2023/07/30 14:08:38;;;;;;;4.80;2.30;;;33.40;83.70;;;;;;5070910;28;20668;-52
2023/07/30 14:11:45;;;;;;;4.53;2.13;;;33.10;86.00;;;;;;5070654;28;20056;-54
2023/07/30 14:14:49;;;;;;;5.05;2.13;;;33.10;85.50;;;;;;5070890;28;20047;-53
2023/07/30 14:17:54;;;;;;;4.82;2.03;;;32.90;85.20;;;;;;5070819;28;20051;-51
2023/07/30 14:20:59;;;;;;;6.10;2.03;;;33.50;84.50;;;;;;5070470;28;20043;-55
2023/07/30 14:24:03;;;;;;;3.80;2.10;;;33.60;85.20;;;;;;5070593;28;20035;-52
2023/07/30 14:27:09;;;;;;;12.38;2.22;;;33.00;85.80;;;;;;5070346;28;20055;-55
2023/07/30 14:30:12;;;;;;;3.70;2.03;;;32.80;85.40;;;;;;5070324;28;20035;-55
2023/07/30 14:33:17;;;;;;;5.55;2.10;;;31.80;86.80;;;;;;5070246;28;20048;-51
2023/07/30 14:36:20;;;;;;;5.57;2.67;;;32.80;86.00;;;;;;5070394;28;20043;-51
2023/07/30 14:39:25;;;;;;;6.18;2.38;;;33.00;86.70;;;;;;5069237;28;20513;-55
2023/07/30 14:42:29;;;;;;;6.30;1.88;;;33.40;86.40;;;;;;5069969;28;20040;-52
2023/07/30 14:45:33;;;;;;;4.18;2.33;;;33.50;85.00;;;;;;5070195;28;20446;-55
2023/07/30 14:48:38;;;;;;;4.35;2.13;;;33.30;85.20;;;;;;5070437;28;20047;-51
2023/07/30 14:51:43;;;;;;;5.47;2.22;;;33.20;84.90;;;;;;5070012;28;20047;-51
2023/07/30 14:54:47;;;;;;;5.30;2.10;;;32.50;85.40;;;;;;5070186;28;20044;-51
2023/07/30 14:57:52;;;;;;;4.78;1.77;;;32.10;85.50;;;;;;5069853;28;20035;-51
2023/07/30 15:00:57;;;;;;;6.40;2.38;;;31.60;87.00;;;;;;5069689;28;20043;-51
2023/07/30 15:04:04;;;;;;;9.88;2.28;;;31.00;87.60;;;;;;5070241;28;20442;-54
2023/07/30 15:07:09;;;;;;;6.30;2.20;;;30.90;88.70;;;;;;5069660;28;20039;-51
2023/07/30 15:10:16;;;;;;;5.85;2.22;;;30.90;87.90;;;;;;5069826;28;20048;-53
2023/07/30 15:13:22;;;;;;;3.28;2.25;;;30.60;90.00;;;;;;5069834;28;20051;-52
2023/07/30 15:16:25;;;;;;;6.13;2.60;;;31.10;89.30;;;;;;5069624;28;20063;-51
2023/07/30 15:19:30;;;;;;;3.05;1.70;;;31.00;89.50;;;;;;5069765;28;20530;-51
2023/07/30 15:22:34;;;;;;;3.03;1.98;;;31.10;89.80;;;;;;5069101;28;20047;-51
2023/07/30 15:25:38;;;;;;;5.40;1.70;;;30.70;89.00;;;;;;5069410;28;20047;-51
2023/07/30 15:28:42;;;;;;;3.35;1.80;;;31.10;90.50;;;;;;5069776;28;20040;-54
2023/07/30 15:31:50;;;;;;;4.38;2.47;;;31.60;86.00;;;;;;5069200;28;20047;-52
2023/07/30 15:34:54;;;;;;;3.15;2.00;;;31.60;86.50;;;;;;5069821;28;20502;-51
2023/07/30 15:37:58;;;;;;;5.75;2.03;;;31.80;87.20;;;;;;5069460;28;20047;-52
2023/07/30 15:41:01;;;;;;;4.28;2.35;;;31.20;87.70;;;;;;5069046;28;20047;-52
2023/07/30 15:44:05;;;;;;;5.47;2.53;;;31.00;88.90;;;;;;5069481;28;20036;-51
2023/07/30 15:47:11;;;;;;;5.20;2.08;;;31.10;89.40;;;;;;5069485;28;20044;-51
2023/07/30 15:50:16;;;;;;;4.07;2.35;;;31.40;89.70;;;;;;5069172;28;20044;-52
2023/07/30 15:53:20;;;;;;;6.63;2.08;;;30.70;90.30;;;;;;5069348;28;20052;-50
2023/07/30 15:56:25;;;;;;;6.35;2.22;;;31.00;88.90;;;;;;5069451;28;20514;-51
2023/07/30 15:59:29;;;;;;;5.55;2.38;;;30.00;90.40;;;;;;5069588;28;20051;-51